Time;durP1;ratioP1;P1;durP2;ratioP2;P2;SDS_P1;SDS_P2;PMS_P1;PMS_P2;Temp;Humidity;BMP_temperature;BMP_pressure;BME280_temperature;BME280_humidity;BME280_pressure;Samples;Min_cycle;Max_cycle;Signal;HPM_P1;HPM_P2
2021/09/20 00:04:42;;;;;;;18.9;13.7;;;;;;;10.31;100;98517.67;;;;
2021/09/20 00:14:41;;;;;;;18.5;15.4;;;;;;;10.24;100;98512.69;;;;
2021/09/20 00:24:40;;;;;;;18.1;13.6;;;;;;;10.29;100;98509.09;;;;
2021/09/20 00:34:39;;;;;;;17;15.1;;;;;;;10.3;100;98510.69;;;;
2021/09/20 00:44:38;;;;;;;21.2;15;;;;;;;10.37;100;98505.66;;;;
2021/09/20 00:54:38;;;;;;;19.8;13.8;;;;;;;10.31;100;98504.2;;;;
2021/09/20 01:04:37;;;;;;;20.8;15.3;;;;;;;10.31;100;98504.2;;;;
2021/09/20 01:14:36;;;;;;;15.7;13.5;;;;;;;10.28;100;98513.67;;;;
2021/09/20 01:24:35;;;;;;;19.3;14.9;;;;;;;10.23;100;98505.73;;;;
2021/09/20 01:34:34;;;;;;;16.5;14;;;;;;;10.24;100;98511.92;;;;
2021/09/20 01:44:33;;;;;;;16.7;12.5;;;;;;;10.1;100;98512.72;;;;
2021/09/20 01:54:32;;;;;;;20.2;12.1;;;;;;;10.09;100;98511.15;;;;
2021/09/20 02:04:31;;;;;;;15.2;11.2;;;;;;;10.03;100;98514.27;;;;
2021/09/20 02:14:31;;;;;;;12.9;10.8;;;;;;;10.01;100;98514.56;;;;
2021/09/20 02:24:30;;;;;;;11.1;8.6;;;;;;;9.84;100;98509.05;;;;
2021/09/20 02:34:29;;;;;;;14.2;8.6;;;;;;;9.84;100;98508.24;;;;
2021/09/20 02:44:28;;;;;;;16.9;10;;;;;;;9.84;100;98509.05;;;;
2021/09/20 02:54:27;;;;;;;10.6;9.5;;;;;;;9.89;100;98506.22;;;;
2021/09/20 03:04:26;;;;;;;11;9.9;;;;;;;9.8;100;98510.75;;;;
2021/09/20 03:14:26;;;;;;;13.5;9.2;;;;;;;9.83;100;98512.02;;;;
2021/09/20 03:24:25;;;;;;;8.1;6.9;;;;;;;9.83;100;98501.27;;;;
2021/09/20 03:34:24;;;;;;;12.7;7.8;;;;;;;9.79;100;98516.45;;;;
2021/09/20 03:44:23;;;;;;;10.6;6.5;;;;;;;9.83;100;98512.83;;;;
2021/09/20 03:54:22;;;;;;;10.7;9.2;;;;;;;9.77;100;98514.05;;;;
2021/09/20 04:04:21;;;;;;;20.8;10.1;;;;;;;9.78;100;98523.72;;;;
2021/09/20 04:14:20;;;;;;;12.8;9;;;;;;;9.8;100;98528.79;;;;
2021/09/20 04:24:19;;;;;;;13.9;10.4;;;;;;;9.81;100;98536.58;;;;
2021/09/20 04:34:19;;;;;;;12.1;10;;;;;;;9.84;100;98551.31;;;;
2021/09/20 04:44:18;;;;;;;17.7;10;;;;;;;9.87;100;98551.5;;;;
2021/09/20 04:54:17;;;;;;;13.6;8.7;;;;;;;9.9;100;98550.09;;;;
2021/09/20 05:04:16;;;;;;;12.7;8.8;;;;;;;9.89;100;98554.67;;;;
2021/09/20 05:14:15;;;;;;;15.7;7.3;;;;;;;10.02;100;98563.83;;;;
2021/09/20 05:24:14;;;;;;;9.6;7;;;;;;;10.1;100;98566.58;;;;
2021/09/20 05:34:13;;;;;;;8.7;6.2;;;;;;;10.11;100;98572.77;;;;
2021/09/20 05:44:12;;;;;;;10.1;7.2;;;;;;;10.22;100;98573.36;;;;
2021/09/20 05:54:12;;;;;;;9.2;7.3;;;;;;;10.42;100;98570.17;;;;
2021/09/20 06:04:11;;;;;;;11.2;7.1;;;;;;;10.5;100;98583.72;;;;
2021/09/20 06:14:10;;;;;;;11.7;7;;;;;;;10.58;100;98584.89;;;;
2021/09/20 06:24:09;;;;;;;8.9;7.2;;;;;;;10.56;100;98593.27;;;;
2021/09/20 06:34:09;;;;;;;10.1;6.6;;;;;;;10.55;100;98585.5;;;;
2021/09/20 06:44:09;;;;;;;7.8;5.8;;;;;;;10.55;100;98588.97;;;;
2021/09/20 06:54:07;;;;;;;12.6;8.5;;;;;;;10.38;100;98607.7;;;;
2021/09/20 07:04:06;;;;;;;7.3;5.6;;;;;;;10.04;100;98610.88;;;;
2021/09/20 07:14:06;;;;;;;7.8;4.3;;;;;;;9.9;100;98610.11;;;;
2021/09/20 07:24:05;;;;;;;6.1;3.6;;;;;;;10.09;100;98624.25;;;;
2021/09/20 07:34:09;;;;;;;6.6;3.6;;;;;;;10.19;100;98636.72;;;;
2021/09/20 07:44:05;;;;;;;7;3.9;;;;;;;10.46;100;98633.13;;;;
2021/09/20 07:54:05;;;;;;;7.1;4.1;;;;;;;10.7;100;98632.83;;;;
2021/09/20 08:04:05;;;;;;;6.6;4.2;;;;;;;11.29;100;98650.47;;;;
2021/09/20 08:14:05;;;;;;;5.9;3.3;;;;;;;11.73;100;98660.38;;;;
2021/09/20 08:24:00;;;;;;;6.7;4.9;;;;;;;11.89;100;98658.83;;;;
2021/09/20 08:33:59;;;;;;;5.8;4.6;;;;;;;12.03;100;98660.3;;;;
2021/09/20 08:43:59;;;;;;;6.5;4.1;;;;;;;12.09;100;98667.14;;;;
2021/09/20 08:53:58;;;;;;;6.7;3.2;;;;;;;12.24;100;98676.7;;;;
2021/09/20 09:03:57;;;;;;;4.5;2.9;;;;;;;11.86;100;98676.47;;;;
2021/09/20 09:13:57;;;;;;;6.3;4.5;;;;;;;10.83;100;98691.3;;;;
2021/09/20 09:23:56;;;;;;;7.6;3.4;;;;;;;10.46;100;98693.2;;;;
2021/09/20 09:33:56;;;;;;;12.8;4.3;;;;;;;10.18;100;98704.34;;;;
2021/09/20 09:43:54;;;;;;;6.3;3.8;;;;;;;10.52;100;98710.05;;;;
2021/09/20 09:53:53;;;;;;;4.9;2.5;;;;;;;11.54;100;98711.88;;;;
2021/09/20 10:03:53;;;;;;;6.5;3.2;;;;;;;11.71;100;98706.58;;;;
2021/09/20 10:13:52;;;;;;;14.1;3.4;;;;;;;12.12;100;98727.84;;;;
2021/09/20 10:23:51;;;;;;;5.2;2.7;;;;;;;11.44;100;98729.13;;;;
2021/09/20 10:33:51;;;;;;;4.5;2.6;;;;;;;11.19;100;98720.88;;;;
2021/09/20 10:43:50;;;;;;;6.5;3.2;;;;;;;11.09;100;98732.72;;;;
2021/09/20 10:53:49;;;;;;;7.7;3.8;;;;;;;11.86;100;98741.28;;;;
2021/09/20 11:14:08;;;;;;;2.6;1.2;;;;;;;11.04;100;98751.7;;;;
2021/09/20 11:23:49;;;;;;;2;1;;;;;;;10.42;100;98761.47;;;;
2021/09/20 11:33:51;;;;;;;4.4;1.5;;;;;;;10.34;100;98776.47;;;;
2021/09/20 11:43:49;;;;;;;7.3;2.2;;;;;;;10.78;100;98783.06;;;;
2021/09/20 11:53:44;;;;;;;2.4;1;;;;;;;10.65;100;98789.3;;;;
2021/09/20 12:03:44;;;;;;;3.5;1.4;;;;;;;10.93;100;98805.08;;;;
2021/09/20 12:13:43;;;;;;;2.3;1;;;;;;;11.16;100;98792.43;;;;
2021/09/20 12:23:43;;;;;;;1.8;1;;;;;;;11.21;100;98800.39;;;;
2021/09/20 12:33:41;;;;;;;1.5;0.7;;;;;;;11.94;100;98794.52;;;;
2021/09/20 12:43:41;;;;;;;2.4;1.1;;;;;;;11.97;100;98810.13;;;;
2021/09/20 12:53:40;;;;;;;4.1;1.1;;;;;;;11.74;100;98815.86;;;;
2021/09/20 13:03:39;;;;;;;3.8;1.2;;;;;;;11.71;100;98819.17;;;;
2021/09/20 13:13:40;;;;;;;2.2;1.1;;;;;;;11.45;100;98827.09;;;;
2021/09/20 13:23:38;;;;;;;3.6;1.4;;;;;;;11.67;100;98826.27;;;;
2021/09/20 13:33:37;;;;;;;2.3;1;;;;;;;12.02;100;98818.08;;;;
2021/09/20 13:43:36;;;;;;;3.4;1.5;;;;;;;12.31;100;98822.17;;;;
2021/09/20 13:53:36;;;;;;;3;1.3;;;;;;;12.37;100;98829.02;;;;
2021/09/20 14:03:35;;;;;;;2.8;1.2;;;;;;;12.09;100;98823.83;;;;
2021/09/20 14:13:34;;;;;;;3;1.5;;;;;;;11.88;100;98830.88;;;;
2021/09/20 14:23:34;;;;;;;4.6;2;;;;;;;12;100;98831.11;;;;
2021/09/20 14:33:33;;;;;;;4.6;2.5;;;;;;;11.56;100;98841.91;;;;
2021/09/20 14:43:36;;;;;;;8.3;2.6;;;;;;;11.26;100;98840.75;;;;
2021/09/20 14:53:32;;;;;;;7.1;4.6;;;;;;;11.11;100;98855.38;;;;
2021/09/20 15:03:31;;;;;;;16.4;5.2;;;;;;;10.98;100;98867;;;;
2021/09/20 15:13:30;;;;;;;13.6;4.3;;;;;;;10.92;100;98868.22;;;;
2021/09/20 15:23:30;;;;;;;6.9;3.4;;;;;;;10.63;100;98870.44;;;;
2021/09/20 15:33:29;;;;;;;5.4;2.4;;;;;;;10.45;100;98882.11;;;;
2021/09/20 15:43:28;;;;;;;6.3;2.7;;;;;;;10.35;100;98891.2;;;;
2021/09/20 15:53:27;;;;;;;5;2.5;;;;;;;10.19;100;98891.78;;;;
2021/09/20 16:03:26;;;;;;;6.7;4.4;;;;;;;10.04;100;98896.31;;;;
2021/09/20 16:13:25;;;;;;;8.6;4.2;;;;;;;9.9;100;98910.83;;;;
2021/09/20 16:23:25;;;;;;;8.1;5.3;;;;;;;9.89;100;98926.17;;;;
2021/09/20 16:33:24;;;;;;;8.5;4.6;;;;;;;9.76;100;98935.01;;;;
2021/09/20 16:43:23;;;;;;;9.4;4.4;;;;;;;9.66;100;98937.05;;;;
2021/09/20 16:53:23;;;;;;;6.6;4.5;;;;;;;9.64;100;98944.64;;;;
2021/09/20 17:03:21;;;;;;;6.7;4.4;;;;;;;9.62;100;98952.98;;;;
2021/09/20 17:13:20;;;;;;;10.5;8;;;;;;;9.56;100;98962.23;;;;
2021/09/20 17:23:19;;;;;;;18.6;10;;;;;;;9.59;100;98983.17;;;;
2021/09/20 17:33:18;;;;;;;11.6;8.6;;;;;;;9.56;100;98989.94;;;;
2021/09/20 17:43:17;;;;;;;11.8;7.5;;;;;;;9.6;100;98992.85;;;;
2021/09/20 17:53:17;;;;;;;12.5;8.1;;;;;;;9.57;100;98996.13;;;;
2021/09/20 18:03:15;;;;;;;11.7;6.7;;;;;;;9.63;100;99013.8;;;;
2021/09/20 18:13:15;;;;;;;15.8;8.2;;;;;;;9.58;100;99032.69;;;;
2021/09/20 18:23:14;;;;;;;15;9.8;;;;;;;9.51;100;99037.66;;;;
2021/09/20 18:33:13;;;;;;;11.2;9.5;;;;;;;9.45;100;99050.36;;;;
2021/09/20 18:43:12;;;;;;;17.2;11.1;;;;;;;9.35;100;99071.2;;;;
2021/09/20 18:53:11;;;;;;;7.6;5.1;;;;;;;8.71;100;99079.69;;;;
2021/09/20 19:03:10;;;;;;;8;5.7;;;;;;;8.72;100;99094.71;;;;
2021/09/20 19:13:09;;;;;;;9.5;6.4;;;;;;;8.59;100;99101.55;;;;
2021/09/20 19:23:08;;;;;;;8.4;7.2;;;;;;;8.47;100;99106.47;;;;
2021/09/20 19:33:07;;;;;;;11.6;7.8;;;;;;;8.63;100;99110.66;;;;
2021/09/20 19:43:06;;;;;;;10.3;6.2;;;;;;;8.55;100;99117.43;;;;
2021/09/20 19:53:05;;;;;;;8.6;5.7;;;;;;;8.69;100;99122.15;;;;
2021/09/20 20:03:04;;;;;;;9.3;6.5;;;;;;;8.75;100;99121.02;;;;
2021/09/20 20:13:03;;;;;;;9.4;8.5;;;;;;;8.81;100;99139.53;;;;
2021/09/20 20:23:02;;;;;;;10;7.5;;;;;;;8.85;100;99142.45;;;;
2021/09/20 20:33:01;;;;;;;8.4;5.7;;;;;;;8.76;100;99150.3;;;;
2021/09/20 20:42:59;;;;;;;10.8;7;;;;;;;8.89;100;99149.65;;;;
2021/09/20 20:52:58;;;;;;;10.5;6.9;;;;;;;8.99;100;99159.5;;;;
2021/09/20 21:02:57;;;;;;;9.2;6.3;;;;;;;9.04;100;99171.03;;;;
2021/09/20 21:12:57;;;;;;;8.9;6.7;;;;;;;8.92;100;99185.94;;;;
2021/09/20 21:22:56;;;;;;;10.9;5.8;;;;;;;8.94;100;99197.2;;;;
2021/09/20 21:32:54;;;;;;;9;6.7;;;;;;;8.87;100;99199.41;;;;
2021/09/20 21:42:53;;;;;;;10.4;6.4;;;;;;;8.56;100;99193.45;;;;
2021/09/20 21:52:52;;;;;;;10.8;7.7;;;;;;;8.74;100;99210.8;;;;
2021/09/20 22:02:51;;;;;;;10.6;8.2;;;;;;;8.69;100;99224.26;;;;
2021/09/20 22:12:50;;;;;;;9.1;8.2;;;;;;;8.37;100;99227.41;;;;
2021/09/20 22:22:51;;;;;;;12.4;10.4;;;;;;;8.1;100;99238.52;;;;
2021/09/20 22:32:51;;;;;;;12.3;9.2;;;;;;;7.7;100;99217.21;;;;
2021/09/20 22:42:54;;;;;;;13.3;8.8;;;;;;;7.45;100;99218.08;;;;
2021/09/20 22:52:45;;;;;;;15.2;9.6;;;;;;;7.19;100;99228.02;;;;
2021/09/20 23:02:44;;;;;;;9.4;8;;;;;;;6.79;100;99230.7;;;;
2021/09/20 23:12:43;;;;;;;10.3;8.8;;;;;;;6.32;100;99225.52;;;;
2021/09/20 23:22:41;;;;;;;17;10.2;;;;;;;6.14;100;99220.67;;;;
2021/09/20 23:32:40;;;;;;;9;7.5;;;;;;;5.96;100;99238;;;;
2021/09/20 23:42:38;;;;;;;10.1;8.4;;;;;;;5.72;100;99242.13;;;;
2021/09/20 23:52:37;;;;;;;16.4;10.1;;;;;;;5.39;100;99257.44;;;;
